Time;durP1;ratioP1;P1;durP2;ratioP2;P2;SDS_P1;SDS_P2;PMS_P1;PMS_P2;Temp;Humidity;BMP_temperature;BMP_pressure;BME280_temperature;BME280_humidity;BME280_pressure;Samples;Min_cycle;Max_cycle;Signal;HPM_P1;HPM_P2
2023/02/14 00:07:08;;;;;;;93.63;23.55;;;;;;;0.77;100.00;102295.63;20946141;28;20049;-83
2023/02/14 00:17:09;;;;;;;69.05;20.52;;;;;;;0.59;100.00;102288.56;20996538;28;20456;-83
2023/02/14 00:27:11;;;;;;;65.32;21.67;;;;;;;0.71;100.00;102289.22;20949793;28;20044;-83
2023/02/14 00:37:12;;;;;;;47.78;21.17;;;;;;;0.45;100.00;102273.22;20962067;28;20459;-83
2023/02/14 00:47:13;;;;;;;71.18;21.45;;;;;;;0.39;100.00;102279.75;20959464;28;20068;-84
2023/02/14 00:57:14;;;;;;;47.08;19.75;;;;;;;0.48;100.00;102285.41;20976915;28;20052;-84
2023/02/14 01:07:16;;;;;;;50.70;22.33;;;;;;;0.48;100.00;102293.16;20975066;28;20135;-83
2023/02/14 01:17:17;;;;;;;74.90;22.48;;;;;;;0.66;100.00;102299.28;20956372;28;20049;-84
2023/02/14 01:27:18;;;;;;;49.50;20.17;;;;;;;0.65;100.00;102296.63;20951087;28;20124;-84
2023/02/14 01:37:20;;;;;;;46.38;19.75;;;;;;;0.70;100.00;102298.66;20949666;28;20049;-84
2023/02/14 01:47:21;;;;;;;45.78;19.13;;;;;;;0.63;100.00;102296.56;20941272;28;20069;-84
2023/02/14 01:57:22;;;;;;;45.55;18.85;;;;;;;0.65;100.00;102300.09;20940279;28;20075;-83
2023/02/14 02:07:24;;;;;;;50.70;19.17;;;;;;;0.61;100.00;102295.56;20962953;28;20080;-86
2023/02/14 02:17:25;;;;;;;51.65;20.30;;;;;;;0.51;100.00;102295.88;20959732;28;20049;-84
2023/02/14 02:27:26;;;;;;;103.65;20.65;;;;;;;0.41;100.00;102291.00;20943572;28;20136;-84
2023/02/14 02:37:27;;;;;;;42.83;18.92;;;;;;;0.38;100.00;102284.00;20932175;28;20464;-84
2023/02/14 02:47:29;;;;;;;41.45;18.17;;;;;;;0.58;100.00;102281.66;20974802;28;20053;-83
2023/02/14 02:57:30;;;;;;;46.67;18.67;;;;;;;0.55;100.00;102284.06;20954047;28;20160;-84
2023/02/14 03:07:34;;;;;;;;;;;;;;;0.31;100.00;102281.00;20980476;28;20140;-85
2023/02/14 03:17:35;;;;;;;46.35;17.83;;;;;;;0.08;100.00;102278.00;21005586;28;19924;-83
2023/02/14 03:27:37;;;;;;;54.30;19.92;;;;;;;0.11;100.00;102283.34;20911348;28;20524;-84
2023/02/14 03:37:38;;;;;;;43.90;18.70;;;;;;;-0.14;100.00;102283.63;20977832;28;20053;-83
2023/02/14 03:47:39;;;;;;;55.08;20.08;;;;;;;-0.33;100.00;102286.81;20991300;28;20060;-83
2023/02/14 03:57:41;;;;;;;51.70;19.98;;;;;;;-0.28;100.00;102295.69;20973036;28;20053;-83
2023/02/14 04:07:42;;;;;;;56.50;20.83;;;;;;;-0.35;100.00;102290.97;20943567;28;20049;-84
2023/02/14 04:28:03;;;;;;;69.93;20.27;;;;;;;-0.95;100.00;102303.63;20948432;28;20106;-83
2023/02/14 04:38:05;;;;;;;61.38;22.52;;;;;;;-0.97;100.00;102303.53;20942542;28;20053;-83
2023/02/14 04:48:06;;;;;;;121.38;26.80;;;;;;;-0.88;100.00;102301.50;20944456;28;20056;-84
2023/02/14 04:58:07;;;;;;;74.40;26.38;;;;;;;-0.68;100.00;102284.72;20955521;28;20052;-83
2023/02/14 05:08:08;;;;;;;73.75;27.33;;;;;;;-0.49;100.00;102280.66;20980233;28;20493;-83
2023/02/14 05:18:10;;;;;;;68.03;26.55;;;;;;;-0.29;100.00;102273.34;20946579;28;20045;-83
2023/02/14 05:28:11;;;;;;;69.50;27.60;;;;;;;-0.21;100.00;102272.88;20939948;28;20048;-83
2023/02/14 05:38:12;;;;;;;74.10;27.33;;;;;;;-0.19;100.00;102282.47;20902230;28;20523;-84
2023/02/14 05:48:14;;;;;;;71.15;28.92;;;;;;;-0.08;100.00;102298.53;20983691;28;20059;-83
2023/02/14 05:58:15;;;;;;;68.80;25.90;;;;;;;-0.10;100.00;102285.56;20966448;28;20053;-84
2023/02/14 06:08:16;;;;;;;66.68;27.45;;;;;;;0.20;100.00;102289.03;20897805;28;20045;-84
2023/02/14 06:18:17;;;;;;;77.03;29.98;;;;;;;0.38;100.00;102294.28;20924422;28;20537;-84
2023/02/14 06:28:19;;;;;;;73.10;29.45;;;;;;;0.36;100.00;102295.03;20983791;28;20408;-84
2023/02/14 06:38:20;;;;;;;64.53;26.63;;;;;;;0.33;100.00;102310.31;20929588;28;20048;-84
2023/02/14 06:48:22;;;;;;;67.95;27.80;;;;;;;0.40;100.00;102312.44;20969413;28;20535;-83
2023/02/14 06:58:23;;;;;;;65.90;25.92;;;;;;;0.25;100.00;102315.94;20899500;28;20103;-83
2023/02/14 07:08:24;;;;;;;65.53;26.10;;;;;;;0.28;100.00;102311.72;20946851;28;20053;-84
2023/02/14 07:18:26;;;;;;;67.30;27.13;;;;;;;0.27;100.00;102308.28;20927840;28;20137;-83
2023/02/14 07:28:29;;;;;;;69.28;27.48;;;;;;;0.21;100.00;102305.34;20927154;28;20049;-84
2023/02/14 07:38:30;;;;;;;60.72;26.40;;;;;;;0.41;100.00;102303.91;20895844;28;20045;-82
2023/02/14 07:48:31;;;;;;;61.40;26.17;;;;;;;0.57;100.00;102303.94;20940395;28;20060;-83
2023/02/14 07:58:34;;;;;;;57.08;24.48;;;;;;;0.44;100.00;102314.38;20922296;28;20061;-83
2023/02/14 08:08:36;;;;;;;59.45;24.48;;;;;;;0.59;100.00;102309.19;20946656;28;20149;-81
2023/02/14 08:18:37;;;;;;;50.65;22.60;;;;;;;0.67;100.00;102308.81;20956115;28;20060;-82
2023/02/14 08:28:38;;;;;;;56.60;23.98;;;;;;;0.51;100.00;102306.19;20953475;28;20133;-83
2023/02/14 08:38:42;;;;;;;60.58;24.50;;;;;;;0.68;100.00;102296.81;21014518;28;20052;-82
2023/02/14 08:48:44;;;;;;;55.83;23.85;;;;;;;0.74;100.00;102310.91;20941643;28;20060;-83
2023/02/14 08:58:45;;;;;;;59.38;25.25;;;;;;;0.83;100.00;102307.06;20985254;28;20425;-83
2023/02/14 09:08:46;;;;;;;56.47;24.10;;;;;;;0.90;100.00;102306.59;20907923;28;20045;-82
2023/02/14 09:18:47;;;;;;;59.40;24.98;;;;;;;1.09;100.00;102317.09;20937143;28;20048;-82
2023/02/14 09:28:49;;;;;;;57.28;25.27;;;;;;;1.18;100.00;102302.09;20964763;28;20103;-81
2023/02/14 09:38:50;;;;;;;54.40;24.23;;;;;;;1.59;100.00;102298.22;20984956;22;20048;-68
2023/02/14 09:48:51;;;;;;;51.58;24.30;;;;;;;1.59;100.00;102287.00;20965333;22;20049;-73
2023/02/14 09:58:53;;;;;;;55.83;24.88;;;;;;;1.87;100.00;102285.00;20962273;28;20505;-72
2023/02/14 10:08:55;;;;;;;47.95;23.23;;;;;;;2.06;100.00;102281.63;20953261;28;20052;-70
2023/02/14 10:18:56;;;;;;;58.28;25.00;;;;;;;1.60;100.00;102283.63;20947227;28;20068;-70
2023/02/14 10:28:57;;;;;;;56.10;23.95;;;;;;;1.83;100.00;102283.06;20946773;28;20052;-72
2023/02/14 10:38:59;;;;;;;58.63;25.98;;;;;;;2.15;100.00;102269.13;20944957;28;20072;-71
2023/02/14 10:49:00;;;;;;;61.03;26.55;;;;;;;2.42;100.00;102263.53;20947224;28;20052;-71
2023/02/14 10:59:01;;;;;;;51.05;23.75;;;;;;;2.08;100.00;102254.16;20942812;28;20492;-70
2023/02/14 11:09:03;;;;;;;51.45;22.77;;;;;;;2.26;100.00;102249.88;20941900;28;20112;-71
2023/02/14 11:19:04;;;;;;;51.65;23.63;;;;;;;2.67;100.00;102238.00;20943135;28;20119;-71
2023/02/14 11:29:05;;;;;;;54.88;24.05;;;;;;;2.81;100.00;102221.41;20936836;28;20049;-71
2023/02/14 11:39:07;;;;;;;50.13;23.80;;;;;;;2.82;100.00;102205.06;20899082;28;20056;-71
2023/02/14 11:49:09;;;;;;;49.47;23.83;;;;;;;2.86;100.00;102194.84;20923941;28;20048;-71
2023/02/14 12:09:48;;;;;;;47.03;23.85;;;;;;;3.41;100.00;102168.78;20978405;28;20049;-78
2023/02/14 12:19:49;;;;;;;54.90;25.75;;;;;;;3.47;100.00;102159.53;20982658;28;20049;-78
2023/02/14 12:29:51;;;;;;;55.38;26.40;;;;;;;3.25;100.00;102151.69;20981880;28;20052;-78
2023/02/14 12:39:52;;;;;;;52.92;25.67;;;;;;;3.10;100.00;102139.00;20932678;28;20685;-78
2023/02/14 12:49:53;;;;;;;53.70;26.05;;;;;;;3.24;100.00;102122.34;20963246;28;20186;-78
2023/02/14 12:59:57;;;;;;;57.42;26.05;;;;;;;3.18;100.00;102124.69;20961036;28;20098;-78
2023/02/14 13:09:59;;;;;;;59.92;25.63;;;;;;;3.34;100.00;102121.00;20938946;28;20049;-78
2023/02/14 13:20:00;;;;;;;53.25;25.23;;;;;;;3.60;100.00;102097.06;20946937;28;20102;-78
2023/02/14 13:30:01;;;;;;;52.35;25.92;;;;;;;3.32;100.00;102089.91;20975586;28;20067;-78
2023/02/14 13:40:03;;;;;;;52.72;26.98;;;;;;;3.51;100.00;102077.69;20936696;28;20096;-78
2023/02/14 13:50:04;;;;;;;55.55;27.50;;;;;;;3.22;100.00;102063.59;20972829;28;20067;-77
2023/02/14 14:00:05;;;;;;;56.30;27.73;;;;;;;3.22;100.00;102051.53;20926920;28;20082;-78
2023/02/14 14:10:06;;;;;;;67.47;29.30;;;;;;;3.43;100.00;102048.91;20961562;28;20048;-78
2023/02/14 14:20:08;;;;;;;56.00;27.67;;;;;;;3.63;100.00;102039.31;20973704;28;20079;-78
2023/02/14 14:30:10;;;;;;;60.13;29.80;;;;;;;3.73;100.00;102038.84;20929006;28;20103;-78
2023/02/14 14:40:11;;;;;;;68.90;32.42;;;;;;;3.91;100.00;102022.25;20955359;28;20052;-78
2023/02/14 14:50:13;;;;;;;65.38;31.90;;;;;;;3.73;100.00;102012.94;20940920;28;20049;-78
2023/02/14 15:00:14;;;;;;;63.85;31.77;;;;;;;3.93;100.00;102012.81;20923193;28;20057;-78
2023/02/14 15:10:15;;;;;;;66.55;31.33;;;;;;;3.92;100.00;102004.16;20917159;28;20053;-78
2023/02/14 15:20:16;;;;;;;59.38;29.58;;;;;;;3.93;100.00;101981.72;20921401;28;20461;-80
2023/02/14 15:30:18;;;;;;;63.20;31.85;;;;;;;3.75;100.00;101995.75;20977700;28;20183;-80
2023/02/14 15:40:19;;;;;;;64.30;32.17;;;;;;;3.52;100.00;102001.78;21006665;28;20049;-80
2023/02/14 15:50:23;;;;;;;67.20;32.42;;;;;;;3.32;100.00;101994.09;20984385;28;20053;-80
2023/02/14 16:00:25;;;;;;;66.43;33.17;;;;;;;3.12;100.00;101987.28;20950046;28;20045;-80
2023/02/14 16:10:26;;;;;;;74.70;33.85;;;;;;;2.91;100.00;101987.25;20936587;28;20049;-80
2023/02/14 16:20:28;;;;;;;77.75;36.00;;;;;;;2.72;100.00;101988.22;20950645;28;20045;-81
2023/02/14 16:30:29;;;;;;;76.05;35.08;;;;;;;2.53;100.00;101985.66;20943124;28;20501;-81
2023/02/14 16:40:30;;;;;;;81.97;36.78;;;;;;;2.30;100.00;101976.97;20980729;28;20151;-81
2023/02/14 16:50:31;;;;;;;83.10;37.35;;;;;;;2.13;100.00;101985.66;20946690;28;20111;-80
2023/02/14 17:00:33;;;;;;;87.97;37.60;;;;;;;1.93;100.00;101996.00;20952298;28;20166;-80
2023/02/14 17:10:34;;;;;;;91.95;38.47;;;;;;;1.69;100.00;102010.38;20947085;28;20041;-80
2023/02/14 17:20:36;;;;;;;93.15;40.25;;;;;;;1.49;100.00;102005.19;20954628;28;20078;-80
2023/02/14 17:30:37;;;;;;;95.00;40.13;;;;;;;1.32;100.00;102012.94;20966911;28;20501;-80
2023/02/14 17:40:39;;;;;;;104.03;41.90;;;;;;;1.26;100.00;102019.56;20985557;28;20056;-81
2023/02/14 17:50:40;;;;;;;111.57;42.88;;;;;;;1.06;100.00;102020.31;20970492;28;20049;-80
2023/02/14 18:00:42;;;;;;;109.45;44.00;;;;;;;0.84;100.00;102012.31;20960623;28;20052;-80
2023/02/14 18:10:44;;;;;;;138.43;55.47;;;;;;;0.63;100.00;102007.88;21029036;28;20501;-80
2023/02/14 18:20:45;;;;;;;120.30;44.20;;;;;;;0.60;100.00;101992.25;20981841;28;20063;-80
2023/02/14 18:30:47;;;;;;;125.82;44.05;;;;;;;0.52;100.00;101988.38;20957354;28;20048;-80
2023/02/14 18:40:48;;;;;;;121.78;43.45;;;;;;;0.49;100.00;101983.09;20956355;28;20063;-80
2023/02/14 18:50:52;;;;;;;120.10;44.47;;;;;;;0.38;100.00;101994.53;20988283;28;20484;-80
2023/02/14 19:00:54;;;;;;;123.93;45.63;;;;;;;0.53;100.00;101987.59;20970496;28;20072;-80
2023/02/14 19:21:44;;;;;;;140.27;47.00;;;;;;;0.64;100.00;101973.56;21003236;23;20060;-82
2023/02/14 19:31:46;;;;;;;154.38;48.25;;;;;;;0.63;100.00;101969.22;21023706;28;20082;-81
2023/02/14 19:41:48;;;;;;;176.98;54.60;;;;;;;0.75;100.00;101966.34;21028597;28;20052;-82
2023/02/14 19:51:50;;;;;;;215.40;63.33;;;;;;;0.83;100.00;101946.97;20988993;28;20054;-81
2023/02/14 20:01:51;;;;;;;157.70;51.35;;;;;;;0.66;100.00;101935.84;21019751;28;20053;-81
2023/02/14 20:11:53;;;;;;;180.88;52.88;;;;;;;0.56;100.00;101933.63;21111917;28;20385;-81
2023/02/14 20:21:54;;;;;;;188.35;50.17;;;;;;;0.59;100.00;101922.59;21153269;28;20056;-80
2023/02/14 20:32:00;;;;;;;166.90;51.13;;;;;;;0.56;100.00;101928.47;21061086;28;20048;-81
2023/02/14 20:42:01;;;;;;;159.02;49.17;;;;;;;0.55;100.00;101907.78;21002212;28;20063;-80
2023/02/14 20:52:02;;;;;;;166.45;50.83;;;;;;;0.69;100.00;101892.16;20951797;28;20496;-82
2023/02/14 21:02:04;;;;;;;209.77;53.75;;;;;;;0.59;100.00;101899.38;20960498;28;20053;-81
2023/02/14 21:12:05;;;;;;;174.20;52.88;;;;;;;0.63;100.00;101897.03;20982046;28;20049;-83
2023/02/14 21:22:07;;;;;;;178.05;52.20;;;;;;;0.63;100.00;101884.16;21041451;22;20578;-69
2023/02/14 21:32:08;;;;;;;217.75;51.97;;;;;;;0.60;100.00;101889.16;20941728;28;20441;-69
2023/02/14 21:42:10;;;;;;;277.98;49.10;;;;;;;0.33;100.00;101874.91;20939901;28;20060;-68
2023/02/14 21:52:12;;;;;;;254.80;51.88;;;;;;;0.36;100.00;101869.91;20941492;28;20232;-69
2023/02/14 22:02:13;;;;;;;227.52;53.53;;;;;;;0.46;100.00;101860.13;20896724;28;20053;-69
2023/02/14 22:12:14;;;;;;;189.10;48.08;;;;;;;0.38;100.00;101860.56;20916866;28;20063;-69
2023/02/14 22:22:15;;;;;;;137.13;39.17;;;;;;;0.24;100.00;101862.47;20941087;28;20061;-70
2023/02/14 22:32:16;;;;;;;212.77;42.20;;;;;;;0.39;100.00;101858.06;20938287;28;20067;-69
2023/02/14 22:42:18;;;;;;;215.52;44.33;;;;;;;0.44;100.00;101853.16;20934784;28;20053;-69
2023/02/14 22:52:19;;;;;;;133.02;41.55;;;;;;;0.43;100.00;101856.50;20936871;28;20062;-70
2023/02/14 23:02:21;;;;;;;103.50;34.42;;;;;;;0.46;100.00;101854.09;20934071;28;20095;-69
2023/02/14 23:22:42;;;;;;;94.55;31.95;;;;;;;0.44;100.00;101850.56;20940677;28;20114;-69
2023/02/14 23:32:43;;;;;;;82.55;31.08;;;;;;;0.59;100.00;101845.28;20941085;28;20049;-70
2023/02/14 23:42:44;;;;;;;89.18;33.13;;;;;;;0.69;100.00;101845.78;20941436;28;20053;-70
2023/02/14 23:52:46;;;;;;;98.47;31.25;;;;;;;0.62;100.00;101848.84;20943399;28;20060;-70
